Time;durP1;ratioP1;P1;durP2;ratioP2;P2;SDS_P1;SDS_P2;PMS_P1;PMS_P2;Temp;Humidity;BMP_temperature;BMP_pressure;BME280_temperature;BME280_humidity;BME280_pressure;Samples;Min_cycle;Max_cycle;Signal;HPM_P1;HPM_P2
2022/10/29 00:01:52;;;;;;;15.50;10.23;;;;;;;20.49;44.54;101885.95;1630030;85;21148;-79
2022/10/29 00:04:18;;;;;;;14.40;10.80;;;;;;;20.49;44.54;101884.56;1664730;84;21626;-78
2022/10/29 00:06:47;;;;;;;17.55;10.65;;;;;;;20.50;44.54;101892.27;1675157;83;21140;-78
2022/10/29 00:09:13;;;;;;;14.43;9.58;;;;;;;20.49;44.53;101887.33;1655391;84;21050;-78
2022/10/29 00:11:40;;;;;;;17.17;11.30;;;;;;;20.49;44.53;101885.95;1653796;84;21113;-78
2022/10/29 00:14:06;;;;;;;17.25;10.50;;;;;;;20.50;44.52;101884.80;1679775;83;21084;-78
2022/10/29 00:16:37;;;;;;;14.95;10.25;;;;;;;20.49;44.50;101886.50;1680535;83;21621;-78
2022/10/29 00:19:03;;;;;;;14.73;10.25;;;;;;;20.49;44.53;101890.09;1680835;83;21137;-78
2022/10/29 00:21:30;;;;;;;14.50;9.90;;;;;;;20.49;44.52;101885.11;1654933;84;21038;-78
2022/10/29 00:23:56;;;;;;;13.88;9.73;;;;;;;20.48;44.52;101884.29;1654918;83;21026;-78
2022/10/29 00:26:23;;;;;;;15.80;9.93;;;;;;;20.48;44.52;101877.93;1679610;83;21003;-78
2022/10/29 00:28:53;;;;;;;13.53;9.73;;;;;;;20.48;44.53;101880.14;1676960;83;21689;-78
2022/10/29 00:31:19;;;;;;;13.93;10.10;;;;;;;20.49;44.51;101882.35;1678154;84;21545;-79
2022/10/29 00:33:46;;;;;;;17.77;11.12;;;;;;;20.48;44.53;101877.93;1703628;82;21096;-78
2022/10/29 00:36:16;;;;;;;16.62;10.40;;;;;;;20.48;44.52;101873.78;1698679;82;21132;-78
2022/10/29 00:38:49;;;;;;;14.75;10.32;;;;;;;20.48;44.53;101874.61;1698911;82;21100;-78
2022/10/29 00:41:22;;;;;;;15.75;10.63;;;;;;;20.47;44.51;101870.75;1703335;82;21644;-78
2022/10/29 00:44:13;;;;;;;13.28;10.78;;;;;;;20.47;44.52;101867.42;1705810;82;21219;-80
2022/10/29 00:46:41;;;;;;;14.70;10.23;;;;;;;20.47;44.52;101866.05;1698096;82;20997;-78
2022/10/29 00:49:07;;;;;;;16.90;10.78;;;;;;;20.46;44.52;101862.18;1699872;82;21515;-78
2022/10/29 00:51:34;;;;;;;13.38;9.80;;;;;;;20.46;44.53;101851.95;1660495;84;21085;-78
2022/10/29 00:54:05;;;;;;;15.65;10.18;;;;;;;20.46;44.52;101856.65;1669034;84;21515;-78
2022/10/29 00:56:34;;;;;;;16.00;11.38;;;;;;;20.46;44.54;101856.65;1660988;84;21096;-78
2022/10/29 00:59:06;;;;;;;17.67;10.82;;;;;;;20.46;44.53;101851.13;1645612;85;21251;-77
2022/10/29 01:01:33;;;;;;;14.83;10.93;;;;;;;20.45;44.52;101845.34;1708487;83;21043;-78
2022/10/29 01:03:59;;;;;;;17.90;10.82;;;;;;;20.45;44.52;101852.27;1702056;82;21183;-78
2022/10/29 01:06:25;;;;;;;14.90;10.80;;;;;;;20.45;44.53;101847.53;1699940;83;21105;-78
2022/10/29 01:08:52;;;;;;;16.75;10.58;;;;;;;20.45;44.53;101846.73;1693626;83;21511;-78
2022/10/29 01:11:47;;;;;;;17.62;11.57;;;;;;;20.45;44.53;101848.91;1718195;83;21100;-78
2022/10/29 01:14:35;;;;;;;19.32;10.60;;;;;;;20.45;44.50;101852.27;1647500;83;21076;-78
2022/10/29 01:17:22;;;;;;;14.55;10.58;;;;;;;20.43;44.50;101841.48;1675041;83;21537;-78
2022/10/29 01:20:15;;;;;;;17.23;10.75;;;;;;;20.43;44.51;101839.27;1672072;84;21234;-78
2022/10/29 01:23:38;;;;;;;14.80;10.70;;;;;;;20.43;44.49;101840.66;1683303;83;21464;-78
2022/10/29 01:26:13;;;;;;;15.93;11.20;;;;;;;20.41;44.49;101835.41;1695109;83;21017;-78
2022/10/29 01:29:13;;;;;;;15.13;10.72;;;;;;;20.40;44.49;101834.34;1708105;83;21131;-78
2022/10/29 01:32:10;;;;;;;15.68;10.90;;;;;;;20.39;44.50;101829.36;1688057;83;21111;-78
2022/10/29 01:34:52;;;;;;;15.48;11.10;;;;;;;20.39;44.50;101831.30;1659439;85;21536;-78
2022/10/29 01:37:24;;;;;;;14.93;10.82;;;;;;;20.37;44.50;101826.05;1647892;86;21128;-78
2022/10/29 01:40:01;;;;;;;12.78;10.03;;;;;;;20.38;44.50;101825.50;1682005;83;21084;-78
2022/10/29 01:42:38;;;;;;;18.20;11.10;;;;;;;20.38;44.51;101821.35;1659374;85;21542;-77
2022/10/29 01:45:16;;;;;;;16.55;10.90;;;;;;;20.37;44.52;101814.17;1692041;82;21099;-78
2022/10/29 01:47:59;;;;;;;14.25;10.00;;;;;;;20.38;44.52;101817.20;1695156;83;21841;-78
2022/10/29 01:50:25;;;;;;;15.40;10.72;;;;;;;20.37;44.52;101821.08;1702962;83;21152;-77
2022/10/29 01:52:52;;;;;;;17.07;10.80;;;;;;;20.37;44.54;101816.93;1694871;83;21558;-78
2022/10/29 01:55:20;;;;;;;18.30;10.53;;;;;;;20.36;44.54;101807.02;1694853;83;21045;-78
2022/10/29 01:57:47;;;;;;;19.62;10.65;;;;;;;20.37;44.50;101811.41;1703091;83;21662;-78
2022/10/29 02:00:16;;;;;;;16.25;11.28;;;;;;;20.37;44.52;101810.85;1679577;83;39666;-78
2022/10/29 02:03:12;;;;;;;15.43;10.35;;;;;;;20.38;44.51;101807.53;1703314;83;21056;-78
2022/10/29 02:06:03;;;;;;;16.10;10.15;;;;;;;20.37;44.51;101803.94;1694212;83;21215;-79
2022/10/29 02:08:37;;;;;;;17.20;11.38;;;;;;;20.38;44.50;101807.53;1653115;83;21057;-79
2022/10/29 02:11:15;;;;;;;16.80;11.65;;;;;;;20.37;44.47;101801.73;1699973;83;21606;-79
2022/10/29 02:14:02;;;;;;;16.02;10.90;;;;;;;20.36;44.44;101796.79;1695752;83;21247;-79
2022/10/29 02:16:28;;;;;;;15.68;11.48;;;;;;;20.36;44.46;101800.94;1690764;83;21095;-79
2022/10/29 02:18:56;;;;;;;15.58;11.38;;;;;;;20.35;44.46;101802.05;1670077;83;21115;-79
2022/10/29 02:21:22;;;;;;;17.10;11.00;;;;;;;20.37;44.47;101797.03;1698645;82;21602;-79
2022/10/29 02:23:48;;;;;;;17.37;11.53;;;;;;;20.36;44.45;101800.94;1707231;83;21550;-79
2022/10/29 02:26:15;;;;;;;15.50;10.63;;;;;;;20.36;44.44;101792.64;1694650;83;21659;-79
2022/10/29 02:28:42;;;;;;;18.02;11.10;;;;;;;20.36;44.42;101794.02;1697266;83;21001;-79
2022/10/29 02:31:08;;;;;;;16.27;11.50;;;;;;;20.36;44.41;101793.20;1705093;82;21029;-79
2022/10/29 02:33:34;;;;;;;15.32;11.28;;;;;;;20.35;44.41;101790.16;1693421;83;21187;-79
2022/10/29 02:36:00;;;;;;;18.80;11.60;;;;;;;20.36;44.42;101789.05;1689792;83;21056;-78
2022/10/29 02:38:27;;;;;;;18.48;11.40;;;;;;;20.36;44.42;101794.02;1699405;83;21477;-79
2022/10/29 02:40:53;;;;;;;19.52;11.28;;;;;;;20.36;44.40;101790.44;1703616;83;21124;-79
2022/10/29 02:43:19;;;;;;;15.20;10.38;;;;;;;20.37;44.40;101796.20;1702991;82;21084;-79
2022/10/29 02:45:46;;;;;;;16.27;11.15;;;;;;;20.36;44.39;101798.17;1690825;83;21152;-79
2022/10/29 02:48:12;;;;;;;15.95;10.98;;;;;;;20.36;44.37;101796.79;1705851;83;21174;-79
2022/10/29 02:50:38;;;;;;;17.32;12.10;;;;;;;20.36;44.34;101789.05;1707779;82;21610;-79
2022/10/29 02:53:04;;;;;;;15.32;11.25;;;;;;;20.36;44.37;101787.67;1676429;84;21571;-79
2022/10/29 02:55:31;;;;;;;16.32;11.28;;;;;;;20.35;44.35;101787.39;1701912;83;21025;-79
2022/10/29 02:57:57;;;;;;;19.32;10.98;;;;;;;20.34;44.36;101786.57;1677928;83;21064;-79
2022/10/29 03:00:23;;;;;;;13.95;10.43;;;;;;;20.35;44.37;101781.87;1693351;82;21155;-79
2022/10/29 03:02:51;;;;;;;16.35;11.30;;;;;;;20.35;44.38;101779.11;1689758;83;21090;-78
2022/10/29 03:05:18;;;;;;;18.17;12.00;;;;;;;20.35;44.37;101781.87;1690448;83;21028;-78
2022/10/29 03:07:44;;;;;;;18.85;11.57;;;;;;;20.34;44.34;101785.19;1695115;83;21623;-78
2022/10/29 03:10:10;;;;;;;17.77;11.63;;;;;;;20.34;44.34;101778.28;1690195;83;21032;-78
2022/10/29 03:12:37;;;;;;;16.85;11.78;;;;;;;20.35;44.32;101784.63;1695432;83;21096;-78
2022/10/29 03:15:04;;;;;;;18.30;10.82;;;;;;;20.35;44.31;101786.02;1690395;83;21072;-78
2022/10/29 03:17:30;;;;;;;15.48;11.05;;;;;;;20.34;44.33;101787.13;1690325;83;20996;-78
2022/10/29 03:19:57;;;;;;;17.92;12.13;;;;;;;20.35;44.31;101787.39;1695024;82;21175;-78
2022/10/29 03:22:23;;;;;;;18.60;12.05;;;;;;;20.34;44.29;101776.06;1700470;83;21048;-79
2022/10/29 03:24:49;;;;;;;16.62;11.35;;;;;;;20.33;44.29;101782.70;1710104;83;21052;-78
2022/10/29 03:27:15;;;;;;;18.12;11.33;;;;;;;20.34;44.29;101782.98;1676551;83;21177;-77
2022/10/29 03:29:42;;;;;;;17.73;11.55;;;;;;;20.34;44.26;101786.57;1690897;82;21089;-78
2022/10/29 03:32:08;;;;;;;15.55;10.82;;;;;;;20.33;44.29;101785.47;1695988;82;21067;-78
2022/10/29 03:34:34;;;;;;;17.80;11.40;;;;;;;20.33;44.29;101785.47;1723309;82;21134;-78
2022/10/29 03:37:01;;;;;;;15.05;10.65;;;;;;;20.33;44.27;101785.47;1724205;82;21104;-78
2022/10/29 03:39:27;;;;;;;17.12;11.78;;;;;;;20.32;44.27;101787.44;1696188;82;20953;-78
2022/10/29 03:41:53;;;;;;;16.73;11.73;;;;;;;20.32;44.26;101782.46;1722897;82;21088;-78
2022/10/29 03:44:19;;;;;;;17.05;12.90;;;;;;;20.32;44.26;101780.53;1723879;81;21056;-77
2022/10/29 03:46:46;;;;;;;18.50;12.05;;;;;;;20.32;44.26;101772.23;1724658;81;21056;-78
2022/10/29 03:49:12;;;;;;;17.15;11.03;;;;;;;20.33;44.24;101771.65;1723277;82;21135;-78
2022/10/29 03:51:38;;;;;;;16.42;10.72;;;;;;;20.32;44.22;101772.79;1724584;82;21175;-78
2022/10/29 03:54:05;;;;;;;16.80;11.18;;;;;;;20.31;44.22;101767.81;1722827;82;21128;-78
2022/10/29 03:56:31;;;;;;;19.00;11.73;;;;;;;20.32;44.22;101765.87;1724199;82;21008;-78
2022/10/29 03:58:57;;;;;;;16.93;11.50;;;;;;;20.31;44.23;101770.58;1723008;83;21080;-78
2022/10/29 04:01:24;;;;;;;16.50;11.38;;;;;;;20.31;44.23;101765.61;1722899;82;21104;-78
2022/10/29 04:03:50;;;;;;;18.87;12.33;;;;;;;20.31;44.21;101767.81;1687711;82;21105;-78
2022/10/29 04:06:17;;;;;;;16.25;11.38;;;;;;;20.30;44.19;101764.78;1743759;81;21600;-79
2022/10/29 04:08:44;;;;;;;16.60;10.90;;;;;;;20.31;44.19;101769.75;1749429;80;21172;-78
2022/10/29 04:11:12;;;;;;;19.57;12.03;;;;;;;20.32;44.17;101765.87;1749621;80;21079;-78
2022/10/29 04:13:39;;;;;;;15.85;11.38;;;;;;;20.31;44.17;101768.38;1731399;82;21136;-78
2022/10/29 04:16:06;;;;;;;19.60;11.85;;;;;;;20.30;44.19;101763.40;1730920;82;21520;-79
2022/10/29 04:18:32;;;;;;;18.75;12.00;;;;;;;20.31;44.19;101773.90;1706678;81;21540;-79
2022/10/29 04:21:00;;;;;;;17.67;11.60;;;;;;;20.32;44.17;101768.64;1716934;81;21116;-77
2022/10/29 04:23:27;;;;;;;15.08;11.25;;;;;;;20.30;44.17;101770.30;1736843;81;21056;-79
2022/10/29 04:25:56;;;;;;;17.62;11.88;;;;;;;20.30;44.15;101777.22;1748451;80;21115;-78
2022/10/29 04:28:23;;;;;;;17.40;11.60;;;;;;;20.30;44.15;101778.59;1743505;80;21185;-78
2022/10/29 04:30:49;;;;;;;17.98;11.68;;;;;;;20.30;44.16;101779.98;1746986;80;21132;-78
2022/10/29 04:33:16;;;;;;;18.65;11.40;;;;;;;20.30;44.14;101784.12;1746729;80;21558;-78
2022/10/29 04:35:42;;;;;;;17.40;10.98;;;;;;;20.30;44.12;101786.89;1743602;80;21476;-77
2022/10/29 04:38:09;;;;;;;15.88;12.05;;;;;;;20.29;44.11;101785.23;1747060;80;21107;-78
2022/10/29 04:40:36;;;;;;;17.23;12.00;;;;;;;20.30;44.12;101783.30;1750375;80;21136;-78
2022/10/29 04:43:02;;;;;;;16.30;11.22;;;;;;;20.31;44.10;101782.19;1685707;83;21060;-78
2022/10/29 04:45:34;;;;;;;17.05;11.50;;;;;;;20.29;44.11;101776.94;1699253;83;21623;-78
2022/10/29 04:48:09;;;;;;;15.53;11.12;;;;;;;20.30;44.12;101780.53;1669370;83;21144;-78
2022/10/29 04:50:37;;;;;;;17.75;11.97;;;;;;;20.29;44.09;101777.47;1684777;83;21615;-78
2022/10/29 04:53:04;;;;;;;19.12;11.48;;;;;;;20.29;44.09;101780.23;1714164;83;21142;-78
2022/10/29 04:55:31;;;;;;;16.02;11.10;;;;;;;20.28;44.07;101776.67;1711659;83;21658;-78
2022/10/29 04:57:57;;;;;;;19.25;12.15;;;;;;;20.28;44.08;101781.37;1703521;83;21033;-78
2022/10/29 05:00:23;;;;;;;17.60;11.57;;;;;;;20.28;44.08;101788.28;1685155;83;21675;-78
2022/10/29 05:02:50;;;;;;;19.05;12.25;;;;;;;20.28;44.08;101783.58;1688990;83;21075;-78
2022/10/29 05:05:18;;;;;;;15.83;11.15;;;;;;;20.28;44.08;101785.52;1684811;83;21105;-78
2022/10/29 05:07:45;;;;;;;19.05;12.90;;;;;;;20.28;44.04;101784.12;1692092;83;21242;-77
2022/10/29 05:10:11;;;;;;;20.10;11.40;;;;;;;20.28;44.05;101783.58;1690172;83;21013;-77
2022/10/29 05:12:38;;;;;;;16.73;11.68;;;;;;;20.27;44.04;101788.00;1708122;83;21073;-78
2022/10/29 05:15:05;;;;;;;17.10;11.75;;;;;;;20.27;44.02;101790.77;1693414;83;21608;-78
2022/10/29 05:17:37;;;;;;;19.60;11.85;;;;;;;20.28;44.02;101788.28;1693902;83;21452;-78
2022/10/29 05:20:04;;;;;;;16.93;11.78;;;;;;;20.28;44.01;101793.80;1684812;83;21045;-78
2022/10/29 05:22:31;;;;;;;16.20;11.15;;;;;;;20.28;43.98;101797.95;1723255;83;21500;-78
2022/10/29 05:24:57;;;;;;;19.05;11.65;;;;;;;20.26;44.00;101794.08;1683519;83;21036;-78
2022/10/29 05:27:23;;;;;;;18.12;11.75;;;;;;;20.27;44.00;101799.89;1685028;83;21128;-78
2022/10/29 05:29:49;;;;;;;16.90;11.75;;;;;;;20.27;44.01;101804.58;1655273;85;21174;-78
2022/10/29 05:32:15;;;;;;;17.27;11.73;;;;;;;20.27;44.01;101807.34;1694785;82;21349;-78
2022/10/29 05:34:42;;;;;;;17.17;11.93;;;;;;;20.27;43.98;101810.94;1672045;83;21069;-77
2022/10/29 05:37:08;;;;;;;19.05;12.10;;;;;;;20.27;43.97;101808.17;1684530;83;21064;-78
2022/10/29 05:39:34;;;;;;;17.12;11.25;;;;;;;20.26;43.98;101802.38;1667550;85;21566;-78
2022/10/29 05:42:00;;;;;;;14.93;11.38;;;;;;;20.26;43.99;101812.60;1682734;83;21182;-78
2022/10/29 05:44:26;;;;;;;17.30;11.38;;;;;;;20.26;43.98;101812.60;1684894;83;21064;-78
2022/10/29 05:46:53;;;;;;;18.55;11.78;;;;;;;20.26;44.00;101814.81;1708954;83;21154;-78
2022/10/29 05:49:19;;;;;;;15.35;11.28;;;;;;;20.26;44.01;101811.22;1707906;83;21132;-78
2022/10/29 05:51:45;;;;;;;15.43;11.35;;;;;;;20.26;43.99;101818.12;1711527;82;21033;-78
2022/10/29 05:54:12;;;;;;;17.30;11.57;;;;;;;20.26;43.99;101822.27;1684753;83;21594;-78
2022/10/29 05:56:38;;;;;;;15.70;11.12;;;;;;;20.25;43.98;101822.83;1700173;83;21064;-78
2022/10/29 05:59:04;;;;;;;17.87;11.68;;;;;;;20.26;43.96;101833.33;1684427;83;21017;-78
2022/10/29 06:01:30;;;;;;;15.13;11.22;;;;;;;20.25;43.96;101830.28;1666419;84;21162;-77
2022/10/29 06:04:00;;;;;;;15.50;11.18;;;;;;;20.25;43.97;101833.05;1684866;83;21100;-78
2022/10/29 06:06:25;;;;;;;14.53;10.48;;;;;;;20.25;43.98;101833.05;1712999;83;21265;-78
2022/10/29 06:08:51;;;;;;;16.50;11.75;;;;;;;20.25;43.97;101827.52;1684348;83;21452;-78
2022/10/29 06:11:18;;;;;;;15.08;11.48;;;;;;;20.24;43.98;101830.84;1690892;84;21448;-78
2022/10/29 06:13:44;;;;;;;19.35;12.68;;;;;;;20.24;43.99;101830.84;1692246;82;21171;-78
2022/10/29 06:16:10;;;;;;;17.98;11.55;;;;;;;20.25;43.97;101831.12;1651730;84;21520;-78
2022/10/29 06:18:37;;;;;;;17.00;11.20;;;;;;;20.24;43.96;101832.80;1685827;83;21052;-78
2022/10/29 06:21:03;;;;;;;15.58;11.55;;;;;;;20.25;43.97;101834.43;1684773;83;20945;-78
2022/10/29 06:23:35;;;;;;;14.43;10.58;;;;;;;20.25;43.97;101838.58;1722786;83;21104;-78
2022/10/29 06:26:02;;;;;;;15.93;11.48;;;;;;;20.24;43.97;101841.89;1684787;83;21084;-78
2022/10/29 06:28:28;;;;;;;16.85;11.83;;;;;;;20.25;43.95;101842.72;1686795;82;21745;-77
2022/10/29 06:30:55;;;;;;;16.40;10.58;;;;;;;20.25;43.96;101846.87;1672239;84;20913;-78
2022/10/29 06:33:21;;;;;;;16.90;11.85;;;;;;;20.25;43.97;101862.06;1684519;83;21218;-78
2022/10/29 06:35:47;;;;;;;18.37;11.35;;;;;;;20.25;43.96;101852.39;1687632;84;21013;-78
2022/10/29 06:38:14;;;;;;;16.23;11.50;;;;;;;20.25;43.97;101860.69;1682034;83;21228;-78
2022/10/29 06:40:41;;;;;;;16.07;11.57;;;;;;;20.25;43.96;101862.06;1680351;83;21037;-78
2022/10/29 06:43:09;;;;;;;19.67;11.65;;;;;;;20.24;43.97;101855.71;1684780;83;21586;-78
2022/10/29 06:45:36;;;;;;;16.75;11.70;;;;;;;20.25;43.96;101857.37;1684905;83;21211;-78
2022/10/29 06:48:04;;;;;;;19.27;11.75;;;;;;;20.25;43.96;101851.84;1684816;83;21096;-78
2022/10/29 06:50:31;;;;;;;14.87;10.68;;;;;;;20.24;43.97;101848.00;1684419;82;21536;-78
2022/10/29 06:53:00;;;;;;;12.93;10.65;;;;;;;20.25;43.96;101858.75;1685293;83;21500;-77
2022/10/29 06:55:27;;;;;;;16.80;11.53;;;;;;;20.26;43.97;101858.20;1699352;83;21323;-77
2022/10/29 06:57:58;;;;;;;16.87;11.68;;;;;;;20.25;43.98;101855.16;1698014;83;21100;-78
2022/10/29 07:00:25;;;;;;;19.30;11.22;;;;;;;20.26;43.94;101858.20;1703375;83;21097;-78
2022/10/29 07:02:51;;;;;;;17.30;11.20;;;;;;;20.26;43.92;101863.72;1684636;83;21077;-78
2022/10/29 07:05:18;;;;;;;18.75;12.00;;;;;;;20.25;43.96;101859.30;1712584;83;21104;-78
2022/10/29 07:07:44;;;;;;;15.85;10.93;;;;;;;20.26;43.95;101855.43;1706661;83;21532;-78
2022/10/29 07:10:16;;;;;;;15.32;11.55;;;;;;;20.26;43.94;101865.94;1716372;83;21526;-78
2022/10/29 07:12:43;;;;;;;15.60;11.08;;;;;;;20.26;43.92;101860.41;1705985;83;21108;-78
2022/10/29 07:15:09;;;;;;;15.60;12.35;;;;;;;20.26;43.95;101867.87;1724712;83;21076;-78
2022/10/29 07:17:36;;;;;;;16.62;11.65;;;;;;;20.26;43.96;101860.95;1692929;83;21080;-78
2022/10/29 07:20:04;;;;;;;14.65;11.00;;;;;;;20.26;43.96;101860.41;1680037;83;21186;-78
2022/10/29 07:22:30;;;;;;;15.93;11.05;;;;;;;20.26;43.96;101852.12;1655147;86;21001;-78
2022/10/29 07:24:57;;;;;;;17.15;11.22;;;;;;;20.27;43.97;101855.70;1709917;81;21111;-78
2022/10/29 07:27:23;;;;;;;17.67;10.72;;;;;;;20.26;43.96;101852.12;1703775;81;21075;-78
2022/10/29 07:29:49;;;;;;;18.27;11.28;;;;;;;20.27;43.97;101851.56;1698424;83;21070;-78
2022/10/29 07:32:23;;;;;;;16.17;11.35;;;;;;;20.27;43.97;101845.48;1701632;81;21249;-78
2022/10/29 07:34:49;;;;;;;15.25;11.48;;;;;;;20.27;43.96;101848.80;1700953;83;21724;-78
2022/10/29 07:37:16;;;;;;;16.52;11.48;;;;;;;20.27;43.96;101844.09;1676956;83;21542;-78
2022/10/29 07:39:42;;;;;;;16.27;11.85;;;;;;;20.28;43.97;101842.16;1711335;83;21055;-78
2022/10/29 07:42:08;;;;;;;17.77;10.90;;;;;;;20.28;43.97;101846.31;1698829;83;21013;-78
2022/10/29 07:44:34;;;;;;;16.70;11.80;;;;;;;20.27;43.97;101844.66;1695374;83;21156;-78
2022/10/29 07:47:01;;;;;;;16.52;10.80;;;;;;;20.28;43.97;101842.99;1640218;84;21135;-77
2022/10/29 07:49:28;;;;;;;16.93;11.68;;;;;;;20.28;43.98;101840.23;1658974;85;21017;-78
2022/10/29 07:51:54;;;;;;;14.10;10.70;;;;;;;20.29;43.97;101841.03;1687899;83;21095;-78
2022/10/29 07:54:21;;;;;;;15.45;11.10;;;;;;;20.29;43.97;101838.27;1696156;83;21069;-78
2022/10/29 07:56:47;;;;;;;16.45;11.65;;;;;;;20.28;43.98;101833.32;1694352;83;21118;-78
2022/10/29 07:59:14;;;;;;;16.95;11.12;;;;;;;20.29;43.99;101831.36;1679944;83;21072;-78
2022/10/29 08:01:40;;;;;;;17.57;10.50;;;;;;;20.29;44.00;101840.50;1699726;83;21065;-78
2022/10/29 08:04:07;;;;;;;15.68;10.98;;;;;;;20.28;43.98;101829.73;1680438;83;21155;-78
2022/10/29 08:06:33;;;;;;;14.85;10.60;;;;;;;20.30;43.99;101834.42;1667202;82;21107;-78
2022/10/29 08:08:59;;;;;;;14.85;10.43;;;;;;;20.31;43.98;101837.46;1695288;83;21176;-78
2022/10/29 08:11:25;;;;;;;14.68;10.55;;;;;;;20.30;44.00;101842.16;1687419;83;21591;-78
2022/10/29 08:13:51;;;;;;;14.90;11.20;;;;;;;20.31;43.99;101849.89;1689097;83;21056;-78
2022/10/29 08:16:18;;;;;;;13.83;10.20;;;;;;;20.31;44.00;101846.58;1703257;83;21099;-78
2022/10/29 08:18:45;;;;;;;16.37;11.10;;;;;;;20.31;44.01;101836.91;1696867;83;21100;-78
2022/10/29 08:21:11;;;;;;;16.73;11.08;;;;;;;20.32;43.98;101832.21;1711924;82;21527;-78
2022/10/29 08:23:38;;;;;;;12.95;10.43;;;;;;;20.31;43.99;101828.62;1719098;83;21550;-78
2022/10/29 08:26:04;;;;;;;15.98;10.72;;;;;;;20.32;43.99;101824.74;1719565;83;21052;-78
2022/10/29 08:28:30;;;;;;;16.37;11.45;;;;;;;20.32;43.95;101816.45;1718668;83;21144;-78
2022/10/29 08:30:57;;;;;;;14.68;10.43;;;;;;;20.32;43.95;101820.59;1718620;83;21052;-78
2022/10/29 08:33:23;;;;;;;16.23;10.20;;;;;;;20.34;43.96;101827.20;1719394;82;21599;-78
2022/10/29 08:35:49;;;;;;;15.70;11.05;;;;;;;20.34;43.94;101820.29;1699247;82;21083;-78
2022/10/29 08:38:16;;;;;;;17.60;10.63;;;;;;;20.34;43.92;101821.11;1720431;82;21021;-78
2022/10/29 08:41:02;;;;;;;13.98;10.25;;;;;;;20.35;43.91;101823.33;1720061;83;21183;-78
2022/10/29 08:44:04;;;;;;;16.48;10.72;;;;;;;20.35;43.92;101823.33;1718571;82;21032;-78
2022/10/29 08:46:49;;;;;;;14.75;10.43;;;;;;;20.35;43.91;101826.92;1720269;82;21219;-78
2022/10/29 08:49:31;;;;;;;17.98;10.98;;;;;;;20.35;43.89;101824.70;1719291;83;21515;-77
2022/10/29 08:52:06;;;;;;;15.32;10.15;;;;;;;20.35;43.89;101824.70;1719351;82;21101;-78
2022/10/29 08:54:35;;;;;;;15.13;10.80;;;;;;;20.34;43.87;101818.35;1719387;83;21076;-78
2022/10/29 08:57:13;;;;;;;13.58;10.03;;;;;;;20.35;43.86;101816.41;1716883;82;21049;-78
2022/10/29 09:00:07;;;;;;;14.20;10.13;;;;;;;20.35;43.89;101813.09;1698673;82;22111;-78
2022/10/29 09:02:34;;;;;;;15.58;11.12;;;;;;;20.35;43.87;101811.72;1660966;82;21151;-78
2022/10/29 09:05:00;;;;;;;12.98;9.88;;;;;;;20.34;43.89;101804.53;1699356;82;21052;-78
2022/10/29 09:07:50;;;;;;;14.23;10.20;;;;;;;20.35;43.90;101802.05;1702308;82;21093;-78
2022/10/29 09:10:28;;;;;;;16.17;10.18;;;;;;;20.35;43.92;101804.81;1697453;82;21152;-78
2022/10/29 09:13:08;;;;;;;13.45;10.50;;;;;;;20.35;43.90;101798.45;1705692;82;21198;-78
2022/10/29 09:15:44;;;;;;;14.65;9.50;;;;;;;20.37;43.90;101801.17;1706516;82;20988;-78
2022/10/29 09:18:19;;;;;;;14.70;10.80;;;;;;;20.35;43.90;101798.45;1701353;82;21110;-78
2022/10/29 09:21:02;;;;;;;15.28;10.58;;;;;;;20.36;43.90;101798.17;1708455;82;21382;-79
2022/10/29 09:24:09;;;;;;;15.68;10.88;;;;;;;20.37;43.89;101799.80;1649190;85;21623;-78
2022/10/29 09:27:02;;;;;;;13.80;10.00;;;;;;;20.38;43.91;101796.48;1658224;84;21306;-78
2022/10/29 09:29:53;;;;;;;15.88;10.55;;;;;;;20.37;43.89;101801.17;1649954;85;21080;-79
2022/10/29 09:32:43;;;;;;;14.50;9.80;;;;;;;20.38;43.89;101795.09;1709358;82;21551;-78
2022/10/29 09:35:15;;;;;;;15.30;10.23;;;;;;;20.38;43.89;101789.56;1706678;81;21116;-78
2022/10/29 09:38:01;;;;;;;14.33;10.32;;;;;;;20.38;43.89;101789.56;1712983;81;21061;-78
2022/10/29 09:40:36;;;;;;;13.90;9.90;;;;;;;20.37;43.91;101783.77;1716646;81;21146;-78
2022/10/29 09:43:46;;;;;;;13.53;9.38;;;;;;;20.37;43.90;101776.30;1713460;81;21132;-78
2022/10/29 09:46:38;;;;;;;12.28;9.68;;;;;;;20.38;43.91;101780.72;1710478;81;21040;-78
2022/10/29 09:49:22;;;;;;;12.88;9.85;;;;;;;20.38;43.90;101778.52;1710824;81;21729;-78
2022/10/29 09:52:15;;;;;;;13.58;10.30;;;;;;;20.38;43.89;101771.60;1720313;82;21067;-79
2022/10/29 09:54:41;;;;;;;13.93;10.50;;;;;;;20.38;43.90;101774.37;1719356;81;21378;-79
2022/10/29 09:57:13;;;;;;;15.53;10.63;;;;;;;20.38;43.91;101775.19;1694601;83;21041;-78
2022/10/29 09:59:41;;;;;;;11.95;9.18;;;;;;;20.38;43.91;101766.08;1649514;84;21606;-78
2022/10/29 10:02:36;;;;;;;14.20;10.50;;;;;;;20.39;43.91;101763.03;1686315;83;21078;-79
2022/10/29 10:05:10;;;;;;;13.35;9.85;;;;;;;20.39;43.90;101761.64;1693473;83;21168;-78
2022/10/29 10:07:37;;;;;;;13.50;10.28;;;;;;;20.39;43.91;101758.05;1699324;82;21885;-78
2022/10/29 10:10:14;;;;;;;12.40;9.78;;;;;;;20.40;43.90;101756.39;1691557;83;21535;-78
2022/10/29 10:12:44;;;;;;;13.32;9.33;;;;;;;20.40;43.89;101753.62;1684439;84;21528;-79
2022/10/29 10:15:35;;;;;;;11.78;9.15;;;;;;;20.40;43.90;101750.86;1696211;83;21159;-79
2022/10/29 10:18:07;;;;;;;12.45;10.23;;;;;;;20.40;43.90;101744.51;1689504;83;21116;-78
2022/10/29 10:20:44;;;;;;;15.83;10.15;;;;;;;20.41;43.90;101744.78;1659650;84;21280;-78
2022/10/29 10:23:22;;;;;;;14.90;9.93;;;;;;;20.41;43.90;101744.78;1693297;83;21006;-78
2022/10/29 10:25:50;;;;;;;15.13;10.10;;;;;;;20.41;43.90;101735.11;1694797;82;21550;-78
2022/10/29 10:28:21;;;;;;;11.75;8.85;;;;;;;20.41;43.89;101728.99;1690486;83;21196;-78
2022/10/29 10:31:05;;;;;;;;;;;;;;;20.42;43.89;101728.44;1687810;83;21005;-78
2022/10/29 10:33:33;;;;;;;12.75;9.20;;;;;;;20.42;43.88;101722.91;1690107;84;22077;-78
2022/10/29 10:36:05;;;;;;;12.03;9.28;;;;;;;20.40;43.90;101714.93;1690779;84;21052;-79
2022/10/29 10:38:54;;;;;;;12.07;9.30;;;;;;;20.40;43.90;101705.81;1690793;83;21609;-79
2022/10/29 10:41:32;;;;;;;13.03;10.38;;;;;;;20.42;43.92;101707.70;1688831;83;21183;-79
2022/10/29 10:44:03;;;;;;;11.38;8.65;;;;;;;20.41;43.89;101699.97;1720441;81;21076;-78
2022/10/29 10:46:38;;;;;;;14.58;9.65;;;;;;;20.41;43.88;101697.20;1698766;83;21596;-78
2022/10/29 10:49:11;;;;;;;16.62;9.80;;;;;;;20.42;43.88;101700.24;1726439;83;21096;-78
2022/10/29 10:51:40;;;;;;;12.98;8.85;;;;;;;20.42;43.89;101691.13;1702228;83;21024;-78
2022/10/29 10:54:29;;;;;;;12.68;9.90;;;;;;;20.42;43.89;101689.19;1715167;82;21088;-79
2022/10/29 10:57:04;;;;;;;13.35;9.35;;;;;;;20.43;43.89;101687.25;1713769;82;21080;-78
2022/10/29 10:59:54;;;;;;;14.10;10.03;;;;;;;20.42;43.87;101678.13;1712246;82;21716;-78
2022/10/29 11:02:48;;;;;;;12.07;9.78;;;;;;;20.43;43.88;101673.42;1701447;83;21123;-78
2022/10/29 11:05:24;;;;;;;12.60;9.38;;;;;;;20.44;43.87;101674.53;1706796;83;21111;-78
2022/10/29 11:08:07;;;;;;;12.80;9.30;;;;;;;20.43;43.87;101674.81;1703743;82;21083;-78
2022/10/29 11:10:51;;;;;;;13.25;9.00;;;;;;;20.43;43.88;101674.25;1714612;82;21693;-78
2022/10/29 11:13:21;;;;;;;13.90;9.43;;;;;;;20.42;43.87;101665.69;1703981;82;21183;-78
2022/10/29 11:16:17;;;;;;;12.10;9.15;;;;;;;20.44;43.87;101657.11;1708493;82;28281;-78
2022/10/29 11:18:48;;;;;;;14.75;9.88;;;;;;;20.43;43.86;101651.31;1706037;82;21323;-78
2022/10/29 11:21:42;;;;;;;12.07;9.30;;;;;;;20.43;43.87;101658.23;1700261;82;22232;-79
2022/10/29 11:24:17;;;;;;;12.95;9.43;;;;;;;20.43;43.86;101652.14;1707759;82;21063;-78
2022/10/29 11:26:59;;;;;;;10.88;8.73;;;;;;;20.43;43.86;101649.38;1699710;82;21253;-78
2022/10/29 11:29:51;;;;;;;11.70;9.18;;;;;;;20.44;43.87;101647.44;1715990;83;21670;-78
2022/10/29 11:32:25;;;;;;;11.80;8.88;;;;;;;20.44;43.87;101643.30;1713963;82;20986;-78